• Join FlightAware (Why Join?)
  • Login
  • US Flag 
05:48PM EST


 

Airport Tracker/Info


-or-


 

Live Flight TrackerFlight Track Log ✈ UPS858 ✈ 08-May-2013 ✈ KSDF - KPHX

Flight Track Log - Related Links

Times and Time Zones

All times are in EDT time to prevent confusion due to time zone crossing. See the UPS858 flight status page for this flight to view local times or setup timezone preferences in your user account.

Time Position Orientation Groundspeed Altitude Reporting Facility
EDT Latitude Longitude Course Direction KTS MPH feet Rate Location/Type
03:46AM 38.1610 -85.7400 164° South 174 200 800  Level FlightAware
03:46AM 38.1460 -85.7380 174° South 177 204 1,700 1,920 Climbing FlightAware
03:47AM 38.1190 -85.7430 188° South 214 246 2,400 1,200 Climbing FlightAware
03:47AM 38.1090 -85.7450 189° South 231 266 2,500 1,950 Climbing FlightAware
03:47AM 38.0780 -85.7580 198° South 248 285 3,700 2,400 Climbing FlightAware
03:48AM 38.0670 -85.7780 235° Southwest 255 293 4,300 2,000 Climbing FlightAware
03:48AM 38.0640 -85.7990 260° West 268 308 4,700 2,400 Climbing FlightAware
03:48AM 38.0630 -85.8370 268° West 272 313 5,900 2,945 Climbing FlightAware
03:49AM 38.0600 -85.8860 266° West 279 321 7,400 2,933 Climbing FlightAware
03:49AM 38.0580 -85.9120 264° West 284 327 8,100 2,700 Climbing FlightAware
03:49AM 38.0550 -85.9520 265° West 289 333 9,200 2,229 Climbing FlightAware
03:50AM 38.0510 -86.0290 266° West 318 366 10,700 1,765 Climbing FlightAware
03:51AM 38.0490 -86.1160 268° West 374 430 11,700 1,650 Climbing FlightAware
03:51AM 38.0460 -86.2100 268° West 420 483 12,900 2,541 Climbing FlightAware
03:52AM 38.0420 -86.3180 267° West 436 502 15,300 3,247 Climbing FlightAware
03:53AM 38.0390 -86.4180 268° West 446 513 17,500 3,150 Climbing FlightAware
03:54AM 38.0350 -86.5270 267° West 458 527 19,500 2,965 Climbing FlightAware
03:54AM 38.0300 -86.6490 267° West 466 536 21,700 2,541 Climbing FlightAware
03:55AM 38.0260 -86.7620 267° West 484 557 23,100 2,047 Climbing FlightAware
03:56AM 38.0210 -86.8960 267° West 501 577 24,600 2,329 Climbing FlightAware
03:56AM 38.0160 -87.0120 267° West 501 577 26,400 3,106 Climbing FlightAware
03:57AM 38.0110 -87.1380 267° West 482 555 29,000 3,106 Climbing FlightAware
03:58AM 38.0060 -87.2510 267° West 476 548 30,800 2,259 Climbing FlightAware
03:59AM 38.0010 -87.3780 267° West 478 550 32,200 1,835 Climbing FlightAware
03:59AM 37.9960 -87.4900 267° West 476 548 33,400 1,350 Climbing FlightAware
04:00AM 37.9910 -87.6010 267° West 481 554 34,000 424 Climbing FlightAware
04:01AM 37.9850 -87.7270 267° West 481 554 34,000  Level FlightAware
04:01AM 37.9800 -87.8360 267° West 473 544 34,000  Level FlightAware
04:02AM 37.9750 -87.9480 267° West 469 540 34,000  Level FlightAware
04:03AM 37.9690 -88.0730 267° West 463 533 34,000  Level FlightAware
04:03AM 37.9630 -88.1790 266° West 459 528 34,000  Level FlightAware
04:04AM 37.9570 -88.2980 266° West 457 526 34,000  Level FlightAware
04:05AM 37.9520 -88.4050 267° West 455 524 34,000  Level FlightAware
04:05AM 37.9460 -88.5110 266° West 458 527 34,000  Level FlightAware
04:06AM 37.9400 -88.6180 266° West 459 528 34,000  Level FlightAware
04:07AM 37.9340 -88.7400 266° West 461 531 34,000  Level FlightAware
04:08AM 37.9280 -88.8490 266° West 463 533 34,000  Level FlightAware
04:08AM 37.9210 -88.9680 266° West 464 534 34,000  Level FlightAware
04:09AM 37.9150 -89.0760 266° West 465 535 34,000  Level FlightAware
04:10AM 37.9070 -89.2010 265° West 465 535 34,000  Level FlightAware
04:10AM 37.9010 -89.3090 266° West 464 534 34,000  Level FlightAware
04:11AM 37.8950 -89.3930 265° West 464 534 34,000  Level FlightAware
04:12AM 37.8870 -89.5350 266° West 464 534 34,000  Level FlightAware
04:12AM 37.8800 -89.6440 265° West 463 533 34,000  Level FlightAware
04:13AM 37.8730 -89.7600 266° West 462 532 34,000  Level FlightAware
04:14AM 37.8670 -89.8460 265° West 462 532 34,000  Level FlightAware
04:14AM 37.8610 -89.9370 265° West 462 532 34,000  Level FlightAware
04:15AM 37.8530 -90.0520 265° West 462 532 34,000  Level FlightAware
04:16AM 37.8460 -90.1440 265° West 462 532 34,000  Level FlightAware
04:17AM 37.8400 -90.2350 265° West 462 532 34,000  Level FlightAware
04:17AM 37.8340 -90.3270 265° West 462 532 34,000  Level FlightAware
04:18AM 37.8270 -90.4190 265° West 462 532 34,000  Level FlightAware
04:19AM 37.8190 -90.5330 265° West 462 532 34,000  Level FlightAware
04:19AM 37.8130 -90.6250 265° West 462 532 34,000  Level FlightAware
04:20AM 37.8070 -90.7170 265° West 462 532 34,000  Level FlightAware
04:21AM 37.8000 -90.8080 264° West 462 532 34,000  Level FlightAware
04:22AM 37.7930 -90.9230 266° West 462 532 34,000  Level FlightAware
04:22AM 37.7860 -91.0140 264° West 462 532 34,000  Level FlightAware
04:23AM 37.7800 -91.1060 265° West 462 532 34,000  Level FlightAware
04:24AM 37.7475 -91.4844 265° West 448 516 34,000  Level Kansas City Center
04:25AM 37.7356 -91.6428 265° West 450 518 34,000  Level Kansas City Center
04:26AM 37.7233 -91.7994 264° West 448 516 34,000  Level Kansas City Center
04:27AM 37.7106 -91.9597 264° West 452 520 34,000  Level Kansas City Center
04:28AM 37.6961 -92.1272 264° West 451 519 34,000  Level Kansas City Center
04:29AM 37.6836 -92.2858 264° West 453 521 34,000  Level Kansas City Center
04:30AM 37.6692 -92.4444 263° West 454 522 34,000  Level Kansas City Center
04:31AM 37.6556 -92.6008 264° West 454 522 34,000  Level Kansas City Center
04:32AM 37.6428 -92.7592 264° West 452 520 34,000  Level Kansas City Center
04:33AM 37.6269 -92.9189 263° West 454 522 34,000  Level Kansas City Center
04:34AM 37.6128 -93.0767 264° West 452 520 34,000  Level Kansas City Center
04:35AM 37.5981 -93.2353 263° West 453 521 34,000  Level Kansas City Center
04:36AM 37.5817 -93.3922 263° West 450 518 34,000  Level Kansas City Center
04:37AM 37.5669 -93.5489 263° West 449 517 34,000  Level Kansas City Center
04:38AM 37.5506 -93.7044 262° West 447 514 34,000  Level Kansas City Center
04:39AM 37.5353 -93.8583 263° West 444 511 34,000  Level Kansas City Center
04:40AM 37.5208 -94.0100 263° West 438 504 34,000  Level Kansas City Center
04:41AM 37.5031 -94.1647 262° West 435 501 34,000  Level Kansas City Center
04:42AM 37.4894 -94.3161 264° West 434 499 34,000  Level Kansas City Center
04:43AM 37.4742 -94.4678 263° West 436 502 34,000  Level Kansas City Center
04:44AM 37.4592 -94.6222 263° West 443 510 34,000  Level Kansas City Center
04:45AM 37.4436 -94.7744 263° West 441 507 34,000  Level Kansas City Center
04:46AM 37.4267 -94.9261 262° West 440 506 34,000  Level Kansas City Center
04:47AM 37.4092 -95.0769 262° West 438 504 34,000  Level Kansas City Center
04:48AM 37.3828 -95.2258 257° West 438 504 34,000  Level Kansas City Center
04:49AM 37.3378 -95.3711 249° West 445 512 34,000 198 Level Kansas City Center
04:50AM 37.2922 -95.5181 249° West 450 518 34,400 492 Climbing Kansas City Center
04:51AM 37.2364 -95.6875 248° West 443 510 35,000 298 Climbing Kansas City Center
04:52AM 37.1889 -95.8244 247° West 435 501 35,000  Level Kansas City Center
04:53AM 37.1289 -95.9514 239° Southwest 426 490 35,000  Level Kansas City Center
04:54AM 37.0619 -96.0744 236° Southwest 427 491 35,000  Level Kansas City Center
05:00AM 36.7010 -96.7910 236° Southwest 448 516 35,000  Level FlightAware
05:01AM 36.6660 -96.8910 246° West 453 521 35,000  Level FlightAware
05:01AM 36.6430 -96.9820 253° West 450 518 35,000  Level FlightAware
05:02AM 36.6210 -97.0790 254° West 450 518 35,000  Level FlightAware
05:03AM 36.6010 -97.1640 254° West 450 518 35,000 494 Level FlightAware
05:04AM 36.6400 -97.0300 70° East 449 517 35,700 494 Climbing FlightAware
05:04AM 36.6300 -97.1170 262° West 449 517 35,700  Level FlightAware
05:05AM 36.6180 -97.2260 262° West 449 517 35,700  Level FlightAware
05:06AM 36.6080 -97.3130 262° West 449 517 35,700  Level FlightAware
05:06AM 36.5980 -97.4000 262° West 449 517 35,700  Level FlightAware
05:07AM 36.5880 -97.4870 262° West 449 517 35,700  Level FlightAware
05:08AM 36.5780 -97.5740 262° West 449 517 35,700  Level FlightAware
05:08AM 36.5690 -97.6620 263° West 449 517 35,700  Level FlightAware
05:09AM 36.5560 -97.7700 262° West 449 517 35,700  Level FlightAware
05:10AM 36.5460 -97.8570 262° West 449 517 35,700  Level FlightAware
05:11AM 36.5370 -97.9450 263° West 449 517 35,700  Level FlightAware
05:11AM 36.5270 -98.0320 262° West 449 517 35,700  Level FlightAware
05:12AM 36.5170 -98.1190 262° West 449 517 35,700  Level FlightAware
05:13AM 36.5050 -98.2270 262° West 449 517 35,700 237 Level FlightAware
05:13AM 36.4781 -98.7453 262° West 437 503 36,000 327 Climbing Albuquerque Center
05:14AM 36.4694 -98.8328 263° West 436 502 36,000  Level Kansas City Center
05:15AM 36.4544 -98.9794 263° West 432 497 36,000  Level Kansas City Center
05:16AM 36.4397 -99.1250 263° West 429 494 36,000  Level Kansas City Center
05:17AM 36.4256 -99.2706 263° West 428 493 36,000  Level Kansas City Center
05:18AM 36.4103 -99.4156 263° West 428 493 36,000  Level Kansas City Center
05:19AM 36.3953 -99.5608 263° West 427 491 36,000  Level Kansas City Center
05:20AM 36.3789 -99.7078 262° West 430 495 36,000  Level Kansas City Center
05:21AM 36.3622 -99.8533 262° West 428 493 36,000  Level Kansas City Center
05:22AM 36.3478 -99.9986 263° West 427 491 36,000  Level Kansas City Center
05:23AM 36.3300 -100.1461 262° West 429 494 36,000  Level Kansas City Center
05:24AM 36.3142 -100.2914 262° West 428 493 36,000  Level Kansas City Center
05:25AM 36.2981 -100.4375 262° West 427 491 36,000  Level Kansas City Center
05:25AM 36.2903 -100.4989 261° West 427 491 36,000  Level Albuquerque Center
05:26AM 36.2733 -100.6442 262° West 427 491 36,000  Level Albuquerque Center
05:27AM 36.2564 -100.7897 262° West 427 491 36,000  Level Albuquerque Center
05:28AM 36.2392 -100.9358 262° West 428 493 36,000  Level Albuquerque Center
05:29AM 36.2219 -101.0811 262° West 426 490 36,000  Level Albuquerque Center
05:30AM 36.2014 -101.2511 262° West 427 491 36,000  Level Albuquerque Center
05:31AM 36.1861 -101.3758 261° West 427 491 36,000  Level Albuquerque Center
05:32AM 36.1686 -101.5206 262° West 428 493 36,000  Level Albuquerque Center
05:33AM 36.1503 -101.6650 261° West 428 493 36,000  Level Albuquerque Center
05:34AM 36.1286 -101.8386 261° West 428 493 36,000  Level Albuquerque Center
05:35AM 36.1100 -101.9831 261° West 429 494 36,000  Level Albuquerque Center
05:36AM 36.0825 -102.1253 257° West 428 493 36,000  Level Albuquerque Center
05:37AM 36.0503 -102.2658 254° West 428 493 36,000  Level Albuquerque Center
05:38AM 36.0178 -102.4064 254° West 428 493 36,000  Level Albuquerque Center
05:39AM 35.9856 -102.5469 254° West 427 491 36,000  Level Albuquerque Center
05:40AM 35.9533 -102.6872 254° West 427 491 36,000  Level Albuquerque Center
05:41AM 35.9211 -102.8272 254° West 426 490 36,000  Level Albuquerque Center
05:42AM 35.8892 -102.9642 254° West 425 489 36,000  Level Albuquerque Center
05:43AM 35.8564 -103.1047 254° West 423 487 36,000  Level Albuquerque Center
05:44AM 35.8236 -103.2450 254° West 422 486 36,000  Level Albuquerque Center
05:45AM 35.7906 -103.3850 254° West 423 487 36,000  Level Albuquerque Center
05:46AM 35.7572 -103.5247 254° West 423 487 36,000  Level Albuquerque Center
05:47AM 35.7239 -103.6642 254° West 422 486 36,000  Level Albuquerque Center
05:48AM 35.6906 -103.8033 254° West 421 484 36,000  Level Albuquerque Center
05:49AM 35.6572 -103.9414 253° West 419 482 36,000  Level Albuquerque Center
05:50AM 35.6239 -104.0789 253° West 418 481 36,000  Level Albuquerque Center
05:51AM 35.5906 -104.2153 253° West 416 479 36,000  Level Albuquerque Center
05:52AM 35.5572 -104.3508 253° West 415 478 36,000  Level Albuquerque Center
05:53AM 35.5236 -104.4864 253° West 415 478 36,000  Level Albuquerque Center
05:54AM 35.4900 -104.6222 253° West 415 478 36,000  Level Albuquerque Center
05:55AM 35.4561 -104.7583 253° West 416 479 36,000  Level Albuquerque Center
05:56AM 35.4217 -104.8947 253° West 418 481 36,000  Level Albuquerque Center
05:57AM 35.3872 -105.0311 253° West 416 479 36,000  Level Albuquerque Center
06:03AM 35.2030 -105.7490 253° West 419 482 36,000  Level FlightAware
06:03AM 35.1840 -105.8220 252° West 419 482 36,000  Level FlightAware
06:04AM 35.1550 -105.9330 252° West 421 484 36,000  Level FlightAware
06:05AM 35.1340 -106.0140 252° West 419 482 36,000  Level FlightAware
06:05AM 35.1030 -106.1310 252° West 413 475 36,000  Level FlightAware
06:06AM 35.0790 -106.2210 252° West 411 473 36,000  Level FlightAware
06:07AM 35.0540 -106.3170 252° West 412 474 36,000  Level FlightAware
06:07AM 35.0320 -106.3990 252° West 415 478 36,000  Level FlightAware
06:08AM 35.0070 -106.4950 252° West 415 478 36,000  Level FlightAware
06:09AM 34.9800 -106.5950 252° West 411 473 36,000  Level FlightAware
06:10AM 34.9560 -106.6830 252° West 412 474 36,000  Level FlightAware
06:10AM 34.9290 -106.7820 252° West 410 472 36,000  Level FlightAware
06:11AM 34.9050 -106.8700 252° West 410 472 36,000  Level FlightAware
06:12AM 34.8820 -106.9580 252° West 410 472 36,000  Level FlightAware
06:12AM 34.8550 -107.0570 252° West 409 471 36,000  Level FlightAware
06:13AM 34.8310 -107.1430 251° West 407 468 36,000  Level FlightAware
06:14AM 34.8060 -107.2320 251° West 411 473 36,000  Level FlightAware
06:14AM 34.7830 -107.3170 252° West 413 475 36,000  Level FlightAware
06:15AM 34.7560 -107.4160 252° West 410 472 36,000  Level FlightAware
06:16AM 34.7290 -107.5120 251° West 410 472 36,000  Level FlightAware
06:17AM 34.7040 -107.6040 252° West 411 473 36,000  Level FlightAware
06:17AM 34.6790 -107.6930 251° West 413 475 36,000  Level FlightAware
06:18AM 34.6520 -107.7880 251° West 414 476 36,000  Level FlightAware
06:19AM 34.6270 -107.8770 251° West 417 480 36,000  Level FlightAware
06:19AM 34.5980 -107.9800 251° West 417 480 36,000  Level FlightAware
06:20AM 34.5740 -108.0670 251° West 416 479 36,000  Level FlightAware
06:21AM 34.5480 -108.1560 250° West 415 478 36,000  Level FlightAware
06:22AM 34.5210 -108.2520 251° West 412 474 36,000  Level FlightAware
06:22AM 34.4960 -108.3380 251° West 412 474 36,000  Level FlightAware
06:23AM 34.4660 -108.4440 251° West 410 472 36,000  Level FlightAware
06:24AM 34.4400 -108.5310 250° West 410 472 36,000  Level FlightAware
06:24AM 34.4180 -108.6040 250° West 410 472 36,000  Level FlightAware
06:25AM 34.3810 -108.7390 252° West 403 464 36,000  Level FlightAware
06:26AM 34.3570 -108.8210 250° West 402 463 36,000  Level FlightAware
06:27AM 34.3320 -108.9080 251° West 401 461 36,000  Level FlightAware
06:27AM 34.3090 -108.9830 250° West 401 461 36,000  Level FlightAware
06:28AM 34.2880 -109.0550 251° West 401 461 36,000  Level FlightAware
06:29AM 34.2660 -109.1260 249° West 401 461 36,000  Level FlightAware
06:29AM 34.2390 -109.2160 250° West 401 461 36,000  Level FlightAware
06:30AM 34.2180 -109.2880 251° West 401 461 36,000  Level FlightAware
06:31AM 34.1960 -109.3590 249° West 401 461 36,000  Level FlightAware
06:32AM 34.1670 -109.4680 252° West 36,000  Level FlightAware
06:33AM 34.1180 -109.6310 250° West 395 455 36,000  Level FlightAware
06:33AM 34.0970 -109.7020 250° West 395 455 36,000  Level FlightAware
06:34AM 34.0530 -109.8470 250° West 392 451 36,000  Level FlightAware
06:35AM 34.0430 -109.8800 250° West 392 451 36,000  Level FlightAware
06:35AM 34.0170 -109.9660 250° West 393 452 36,000  Level FlightAware
06:36AM 33.9960 -110.0370 250° West 393 452 36,000  Level FlightAware
06:37AM 33.9580 -110.1590 249° West 392 451 36,000  Level FlightAware
06:38AM 33.9380 -110.2270 250° West 390 449 36,000 -442 Level FlightAware
06:39AM 33.9000 -110.3520 250° West 388 447 35,300 -1,486 Descending FlightAware
06:39AM 33.8730 -110.4400 250° West 383 441 33,400 -3,176 Descending FlightAware
06:40AM 33.8470 -110.5210 249° West 391 450 30,800 -3,825 Descending FlightAware
06:41AM 33.8230 -110.6010 250° West 399 459 28,300 -4,050 Descending FlightAware
06:41AM 33.7960 -110.6870 249° West 408 470 25,400 -4,024 Descending FlightAware
06:42AM 33.7650 -110.7880 250° West 408 470 22,600 -3,533 Descending FlightAware
06:43AM 33.7370 -110.8760 249° West 402 463 20,100 -3,247 Descending FlightAware
06:43AM 33.7120 -110.9580 250° West 397 457 18,000 -3,176 Descending FlightAware
06:44AM 33.6830 -111.0510 249° West 391 450 15,600 -3,812 Descending FlightAware
06:45AM 33.6450 -111.1690 249° West 383 441 12,600 -2,333 Descending FlightAware
06:46AM 33.6250 -111.2320 249° West 379 436 12,100 -360 Descending FlightAware
06:47AM 33.5970 -111.3250 250° West 380 437 12,000 -67 Descending FlightAware
06:47AM 33.5700 -111.4070 248° West 364 419 12,000 -800 Level FlightAware
06:48AM 33.5530 -111.4610 249° West 350 403 11,000 -1,938 Descending FlightAware
06:48AM 33.5360 -111.5130 249° West 330 380 9,900 -1,467 Descending FlightAware
06:49AM 33.5280 -111.5380 249° West 308 354 9,900 -1,067 Level FlightAware
06:49AM 33.5150 -111.5810 250° West 268 308 9,100 -2,100 Descending FlightAware
06:50AM 33.5020 -111.6190 248° West 263 303 7,800 -2,600 Descending FlightAware
06:50AM 33.4890 -111.6620 250° West 267 307 6,500 -1,964 Descending FlightAware
06:50AM 33.4670 -111.7300 249° West 261 300 6,000 -1,418 Descending FlightAware
06:51AM 33.4550 -111.7690 250° West 252 290 5,200 -1,964 Descending FlightAware
06:51AM 33.4440 -111.8010 248° West 247 284 4,200 -1,418 Descending FlightAware
06:52AM 33.4410 -111.8370 264° West 210 242 3,900 -1,200 Descending FlightAware
06:52AM 33.4400 -111.8720 268° West 193 222 3,000 -1,309 Descending FlightAware
06:53AM 33.4400 -111.8950 270° West 158 182 2,700 -764 Descending FlightAware
06:53AM 33.4410 -111.9190 273° West 142 163 2,300 -720 Descending FlightAware
06:54AM 33.4410 -111.9350 270° West 140 161 2,100 -750 Descending FlightAware
06:54AM 33.4410 -111.9500 270° West 138 159 1,800 -720 Descending FlightAware
06:54AM 33.4410 -111.9730 270° West 139 160 1,500 -764 Descending FlightAware
06:55AM 33.4410 -111.9930 270° West 139 160 1,100 -960 Descending FlightAware